首页
METAR-TAF:

METAR-TAF

机场 :

Churchill, 曼尼托巴, 加拿大

纬度: 58-44N, 经度: 094-04W, 海拔: 28米

当前天气观测

该预报发布于31分钟前的21:00 UTC
风速14节,风向,有时为20节阵风
温度 0°C
湿度 93%
气压 1020 hPa
能見度: 16.1公里
散云层高于1300英尺
多云层高于2000英尺
阴天层高于4200英尺
小雪

METAR: CYYQ 222100Z 35014G20KT 10SM -SN SCT013 BKN020 OVC042 M00/M01 A3011 RMK SF3SC4SC1 SLP201

时间: 16:31 (21:31 UTC)

预报

该预报发布于3小时和53分钟前的17:38 UTC
预报有效从22日的 18点(UTC)到 23日的 18点(UTC)
风速18节,风向,有时为28节阵风
能見度: 9.7公里
散云层高于1500英尺
阴天层高于2500英尺
小雪
短暂存在
从 22日的 18点(UTC)到 22日的 21点(UTC)
能見度: 3.2公里
阴天层高于1500英尺
小雪
从 22日的 2100点(UTC)
风速18节,风向,有时为28节阵风
能見度: 10公里
散云层高于1500英尺
阴天层高于2500英尺
短暂存在
从 22日的 21点(UTC)到 23日的 03点(UTC)
能見度: 6.4公里
散云层高于800英尺
阴天层高于1500英尺
小雪
从 23日的 0300点(UTC)
风速15节,风向
能見度: 10公里
阴天层高于1200英尺
成为
从 23日的 08点(UTC)到 23日的 10点(UTC)
风速10节,风向北转西北

TAF: CYYQ 221738Z 2218/2318 35018G28KT 6SM -SN SCT015 OVC025 TEMPO 2218/2221 2SM -SN OVC015 FM222100 35018G28KT P6SM SCT015 OVC025 TEMPO 2221/2303 4SM -SN SCT008 OVC015 FM230300 35015KT P6SM OVC012 BECMG 2308/2310 33010KT RMK NXT FCST BY 230000Z

超过4000个机场的气象观测和天气预报(METAR&TAF报告)。

可查询的气象台以黄色和红色小点在地图上表示。

将鼠标移到小点上方,可查看气象台名称。

然后点击查看天气观测和预报。

如需切换地图:点击带黑十字的绿色按钮放大地图;点击带横线的绿色按钮缩小地图;或者点击绿色箭头查看邻近地区的地图。


METAR-TAF: